Timeline UpdatesTrip UpdatesNews PostsPvt PostsTravel TipsAdmin PostsConv PostsFollowed PostsChat RequestsBlog PostsPNR Posts

Disclaimer
Search
 
 
Tue Sep 2, 2014 17:19:14 ISTHomeTrainsΣChainsAtlasPNRForumGalleryNewsFAQTripsMembersLoginFeedback
No Recent News for this Train
Other Trains in the News **new
Latest...
Permanently augmented by one Sleeper Coach w.e.f. 10.09.2013 (Tuesday) ex - Howrah
Fri Sep 06, 2013 (08:34AM)
⇐ Return Journey: Train# 13010

13009/Doon Express

Time-Table HAS CHANGED.
Today (12:27AM)
Change Departure Station:
Change Arrival Station:
Post a Train Travel TipPost a Train Travel Tip **new
Post a Comment/Question/Picture/VideoPost a Comment/Question/Picture/Video
Inaugural Run
Thu Oct 01, 1925
Pantry/Catering
✕ NO Pantry Car
✓ Catering Avbl
RSA - Rake Sharing
Rake/Coach Composition
LOCO-SLR-GS-S1-S2-S3-S4-S5-S6-A1-B1-B2-B3-S7-S8-S9-S10-S11-S12-GS-GS-SLR
Loco
Loco :HWH WAP#4[HWH-MGS] LKO WDM#3A/3D[MGS-DDN] Author: ✖★hAяѕH °° °°•ⓥⓘⓡDiesel Philic°°•ⓥⓘⓡ...
Read more...
Entry# 249963
News    PNR    Forum    Time-Table    Availability    Fare Chart    Map    Arr/Dep History    Trips    Gallery    ΣChains    X/O    Timeline    
Travel Time: 3h 41m    7 halts    Distance: 213 km    Avg Speed: 57 km/hr
Type: Mail/Express
Zone: ER/Eastern
Departs @ 20:30
Platform# 8
SMTWTFS
Kolkata Howrah Junction/HWH 
Arrives @ 00:11 +1 night
Platform# ???
SMTWTFS
Asansol Junction/ASN 

7 halts. 55 intermediate Stations between Kolkata Howrah Junction and Asansol Junction

Show ALL intermediate Stations  Show Old Time-Table

#CodeStation NameX/OArrivesAvgDepartsAvgHaltPFDay#KmSpeedElevZoneAddress
1HWH»Kolkata Howrah Junction (23)»  -20:30-810.04010mERHowrah 711101, West Bengal
2SRPSerampore (4)X  21:00 20:59-21:08 21:00-8 1m3119.54011mERdist - hooghly, West Bengal
3CGRChandan Nagar (3)X  21:21 21:20-21:23 21:21-2 1m3132.72716mERDist -HOOGHLY - 712136, West Bengal
4BDCBandel Junction (7)X  21:36-21:41-5m1139.57514mERdist - HOOGHLY, West Bengal
5BWNBarddhaman Junction (8)  22:35-22:40-5m21106.78234mERDist - Barddhaman, West Bengal
6PANPanagarh (4)X  23:16 23:15-23:18 23:16-2 1m--1154.76270mERKaksa, West Bengal
7DGRDurgapur (5)  23:31-23:33-2m31170.37771mERDurgapur, West Bengal
8RNGRaniGanj (4)  23:53 23:52-23:55 23:53-2 1m--1194.66092mERRaniganj, West Bengal
9ASN•Asansol Junction (7)•XO  00:11-00:16-5m--2212.761113mERDist - bardhaman, West Bengal
10BRRBarakar (2)  00:34 00:33-00:36 00:34-2 1m--2229.948129mERDist. Bardhaman, West Bengal
11DHNDhanbad Junction (8)X  01:25-01:30-5m32270.971235mECR2319801. Div. HQ ECR, Jharkhand
12GMONetaji SC Bose Gomoh Junction (6)X  01:55-02:05-10m32300.777239mECRGomoh, Jharkhand
13PNMEParasnath (5)X  02:19-02:24-5m--2318.890282mECRGiridih 06532-233419, Jharkhand
14HZDHazaribagh Road (3)X  02:42-02:44-2m--2345.873330mECRHazaribagh, Jharkhand
15PSBParsabad (3)  03:02-03:04-2m--2367.888346mECRNational Highway 2, Jharkhand
16KQRKoderma Junction (7)XO  03:22-03:25-3m--2394.164399mECR06534-222410 Koderma, Jharkhand
17PRPPaharpurXO  04:06-04:08-2m--2438.167150mECRGaya, Bihar
18TKNTankuppaXO  04:19-04:21-2m--2450.435127mECRState Highway 70, Bihar
19GAYAGaya Junction (9)X  04:55-05:00-5m12470.568117mECR0631-2220283, Bihar
20GRRUGuraruX  05:19-05:21-2m--2492.081114mECRGuraru, Bihar
21RFJRafiGanj (4)X  05:33-05:35-2m--2508.172102mECRRafiganj, Bihar
22JHNJakhim  05:44-05:46-2m--2518.96693mECRbel Rd, Bihar
23PESPhesar  05:56-05:58-2m--2530.067104mECRpheshar, Bihar
24AUBRAnugraha Narayan Road (4)  06:06-06:08-2m22539.073104mECR06186-285271, Bihar
25SEBSon Nagar Junction (4)  06:17-06:19-2m--2549.831110mECRBarun, Bihar
26DOSDehri On Sone (6)X  06:30-06:32-2m--2555.681114mECRRohtas(06184-253154), Bihar
27SSMSasaram Junction (4)  06:45-06:47-2m--2573.289111mECR06184-222051, Bihar
28KTQKudra (2)X  07:04-07:06-2m--2598.58492mECRKudra, Bihar
29BBUBhabua Road (4)X  07:22-07:24-2m--2620.87780mECR06187-222222, Bihar
30DGODurgautiX  07:31-07:33-2m--2629.85076mECRDistt Kaimur, Bihar
31KMSKaramnasa  07:47-07:49-2m--2641.48278mECRNational Highway 2, Uttar Pradesh
32SYJSaidrajaO  07:55-07:57-2m--2649.66380mECRSaiyedraja, Uttar Pradesh
33CDMRChandauli MajhwarXO  08:05-08:07-2m--2658.01580mECRNational Highway 2, Uttar Pradesh
34MGSMughal Sarai Junction (8)X  09:17-09:37-20m--2675.42683mECRMughalsarai 232101, Uttar Pradesh
35KEIKashi (3)X  10:02-10:03-1m12686.31985mNRVaranasi, Uttar Pradesh
36BSBVaranasi Junction (9)X  10:20-10:30-10m42691.76282mNRVaranasi 221002, Uttar Pradesh
37BTPBabatpur (2)  10:48-10:49-1m--2710.26284mNRSatomahua-Mangari Rd, Uttar Pradesh
38KSFKhalispur (2)  10:58-10:59-1m--2719.56283mNRPhulpur, Uttar Pradesh
39JLLJalalGanj (2)X  11:10-11:11-1m--2730.84887mNRJalalganj Railway Station, Uttar Pradesh
40ZBDZafarabad Junction (4)  11:26-11:27-1m--2742.94383mNRNational Highway 56, Uttar Pradesh
41JNUJaunpur Junction (5)  11:36-11:38-2m12749.36783mNRJaunpur, Uttar Pradesh
42SHGShahganj Junction (4)X  12:03 12:08-12:07 12:13-4 5m--2782.62990mNRShahganj, Uttar Pradesh
43BWIBilwai (1)12:36-12:37-1m12793.63291mNRBilwai, Uttar Pradesh
44MLPRMalipur (2)  13:03-13:04-1m--2807.66492mNRMalipur, Uttar Pradesh
45ABPAkbarpur (2)  13:22-13:24-2m--2826.77892mNRAkbarpur, Uttar Pradesh
46GGJGoshainGanj (3)  13:41-13:42-1m--2849.06698mNRGoshainganj, Uttar Pradesh
47AYAyodhya Junction (3)  14:11-14:12-1m12880.72798mNRAyodhya, Uttar Pradesh
48ACNDAcharya Narendra Dev Nagar  14:22-14:23-1m--2885.26104mNRFaizabad, Uttar Pradesh
49FDFaizabad Junction (5)X  14:44-14:49 14:53-5 9m12887.357104mNRFaizabad, Uttar Pradesh
50SLWSohwal  15:09-15:10-1m--2902.662107mNRFaizabad Rd, Uttar Pradesh
51RDLRudauli (2)  15:32-15:33-1m--2925.558112mNRRudauli, Uttar Pradesh
52DYDDaryabad  15:57-15:58-1m--2948.646116mNRFaizabad Rd, Uttar Pradesh
53SGJSafdarGanj  16:34 16:24-16:35 16:25-1m--2968.421116mNRFaizabad Rd, Uttar Pradesh
54BBKBarabanki Junction (4)X  17:17-17:18-1m12986.628122mNRPin-225001, Uttar Pradesh
55LKOLucknow Charbagh (9)  18:20-18:35-15m521015.262123mNR226004, Uttar Pradesh
56SANSandila (3)  19:22-19:24-2m--21063.768132mNRSandila, Uttar Pradesh
57BLMBalamu Junction (4)X  19:42-19:44-2m--21084.0124139mNRBalamau, Uttar Pradesh
58HRIHardoi (5)X  20:00-20:13-13m121117.077146mNRHardoi, Uttar Pradesh
59AJIAnjhi ShahabadX  20:38-20:40-2m--21149.248148mNRAnjhi Shahabad, Uttar Pradesh
60ROZARoza Junction (4)  21:09-21:11 21:10-2 1m--21172.637156mNRShahjahanpur, Uttar Pradesh
61SPNShahjahanpur Junction (3)  21:25 21:22-21:28 21:25-3m--21179.968156mNRShahjahanpur, Uttar Pradesh
62TLHTilhar  21:43 21:41-21:45 21:42-2 1m--21198.172163mNRTilhar, Uttar Pradesh
63PMRPitambarpur  22:12 22:09-22:14 22:10-2 1m--21230.554171mNRPitambarpur, Uttar Pradesh
64BEBareilly Junction (4)X  22:35 22:32-22:40 22:37-5m221250.470174mNRBareilly, Uttar Pradesh
65NRSNagaria SadatX23:06 23:04-23:07 23:05-1m--21282.070177mNRNagaria Sadat, Uttar Pradesh
66RMURampur Junction (3)X  23:33 23:32-23:38 23:33-5 1m--21313.435190mNRRampur, Uttar Pradesh
67MBMoradabad Junction (7)X  00:20-00:30-10m231340.767201mNRMoradabad, Uttar Pradesh
68SEOSeohara  01:11-01:13 01:12-2 1m--31386.755224mNRSeohara, Uttar Pradesh
69DPRDhampurX  01:28 01:27-01:30 01:28-2 1m--31400.459236mNRDhampur, Uttar Pradesh
70NGGNagina (3)XO  01:45-01:47-2m--31417.225247mNRNagina, Uttar Pradesh
71NBDNajibabad Junction (3)XO  02:40-03:05-25m231439.763269mNRNajibabad, Uttar Pradesh
72LRJLaksar Junction (4)  03:45-03:50-5m--31481.643238mNRLaksar, Uttarakhand
73JWPJwalapur  04:13 04:22-04:15 04:23-2 1m--31504.520292mNRHaridwar, Uttarakhand
74HWHaridwar Junction (9)  04:35-05:05 05:00-30 25m--31508.532294mNRHaridwar, Uttarakhand
75RWLRaiwala Junction (2)X  05:21-05:23-2m131519.724361mNRRishikesh, Uttarakhand
76DWODoiwalaX  06:15 06:14-06:17 06:15-2 1m--31540.417484mNRDehradun, Uttarakhand
77DDNDehradun (4)  07:25--331560.2-2648mNRDehradun, Uttarakhand
78SNXSaneh Road new halt!!  05:34-05:36-2m--31452.024314mNRSaneh Road, Uttar Pradesh
79KTWKotdwar (1) new halt!!  06:00----31461.4-369mNRKotdwar, Uttarakhand
Scroll to Top
Scroll to Bottom